createdAt,value
2018-05-03T00:01:44.525Z,11.20
2018-05-03T00:04:12.012Z,11.20
2018-05-03T00:06:40.253Z,11.10
2018-05-03T00:09:07.723Z,11.10
2018-05-03T00:11:35.202Z,11.10
2018-05-03T00:14:03.435Z,10.90
2018-05-03T00:16:30.941Z,10.90
2018-05-03T00:18:59.166Z,10.80
2018-05-03T00:21:26.646Z,10.80
2018-05-03T00:23:54.124Z,10.50
2018-05-03T00:26:22.362Z,10.20
2018-05-03T00:28:49.826Z,10.10
2018-05-03T00:31:17.314Z,10.20
2018-05-03T00:33:47.193Z,10.20
2018-05-03T00:36:15.165Z,10.20
2018-05-03T00:38:42.656Z,10.10
2018-05-03T00:41:10.191Z,10.20
2018-05-03T00:43:37.619Z,10.30
2018-05-03T00:46:05.096Z,10.40
2018-05-03T00:48:32.550Z,10.50
2018-05-03T00:51:00.035Z,10.50
2018-05-03T00:53:27.507Z,10.50
2018-05-03T00:55:54.987Z,10.50
2018-05-03T00:58:23.221Z,10.40
2018-05-03T01:00:50.693Z,10.40
2018-05-03T01:03:18.161Z,10.30
2018-05-03T01:05:46.405Z,10.30
2018-05-03T01:08:13.886Z,10.20
2018-05-03T01:10:41.345Z,10.20
2018-05-03T01:13:08.823Z,10.00
2018-05-03T01:15:37.068Z,10.00
2018-05-03T01:18:04.560Z,10.00
2018-05-03T01:20:32.814Z,10.10
2018-05-03T01:23:00.304Z,10.10
2018-05-03T01:25:27.781Z,10.20
2018-05-03T01:27:55.266Z,10.30
2018-05-03T01:30:22.731Z,10.40
2018-05-03T01:32:50.222Z,10.50
2018-05-03T01:35:30.379Z,10.60
2018-05-03T01:37:58.633Z,10.50
2018-05-03T01:40:26.101Z,10.50
2018-05-03T01:42:53.577Z,10.50
2018-05-03T01:45:21.819Z,10.60
2018-05-03T01:47:49.289Z,10.60
2018-05-03T01:50:16.758Z,10.70
2018-05-03T01:52:45.011Z,10.70
2018-05-03T01:55:12.470Z,10.70
2018-05-03T01:57:39.947Z,10.70
2018-05-03T02:00:07.411Z,10.80
2018-05-03T02:02:34.881Z,10.90
2018-05-03T02:05:03.113Z,11.00
2018-05-03T02:07:30.592Z,10.90
2018-05-03T02:09:58.061Z,10.90
2018-05-03T02:12:25.540Z,10.90
2018-05-03T02:14:53.768Z,11.00
2018-05-03T02:17:21.242Z,10.90
2018-05-03T02:19:49.062Z,10.90
2018-05-03T02:22:16.540Z,10.90
2018-05-03T02:24:44.014Z,11.00
2018-05-03T02:27:11.492Z,11.00
2018-05-03T02:29:38.967Z,11.10
2018-05-03T02:32:07.216Z,11.10
2018-05-03T02:34:34.700Z,11.10
2018-05-03T02:37:02.952Z,11.20
2018-05-03T02:39:30.427Z,11.10
2018-05-03T02:41:58.673Z,11.10
2018-05-03T02:44:26.910Z,11.20
2018-05-03T02:46:54.386Z,11.20
2018-05-03T02:49:21.855Z,11.10
2018-05-03T02:51:49.330Z,11.00
2018-05-03T02:54:16.821Z,10.90
2018-05-03T02:56:45.071Z,10.70
2018-05-03T02:59:24.369Z,10.70
2018-05-03T03:01:58.497Z,10.70
2018-05-03T03:04:43.603Z,10.60
2018-05-03T03:14:03.180Z,10.50
2018-05-03T03:16:48.566Z,10.60
2018-05-03T03:19:27.821Z,10.50
2018-05-03T03:22:13.350Z,10.60
2018-05-03T03:24:49.418Z,10.60
2018-05-03T03:27:34.733Z,10.50
2018-05-03T03:30:14.562Z,10.70
2018-05-03T03:32:54.107Z,10.60
2018-05-03T03:38:45.041Z,10.70
2018-05-03T03:41:24.450Z,11.00
2018-05-03T03:44:03.917Z,10.60
2018-05-03T03:46:31.387Z,10.70
2018-05-03T03:48:58.877Z,10.70
2018-05-03T03:51:26.343Z,10.70
2018-05-03T03:53:54.867Z,10.70
2018-05-03T03:56:22.328Z,10.70
2018-05-03T03:58:49.810Z,10.70
2018-05-03T04:01:18.130Z,10.70
2018-05-03T04:03:46.373Z,10.80
2018-05-03T04:06:13.842Z,10.70
2018-05-03T04:08:41.329Z,10.80
2018-05-03T04:11:09.558Z,10.80
2018-05-03T04:13:37.033Z,10.70
2018-05-03T04:16:04.514Z,10.70
2018-05-03T04:18:44.744Z,10.50
2018-05-03T04:21:24.156Z,10.50
2018-05-03T04:24:13.269Z,10.50
2018-05-03T04:26:41.498Z,10.50
2018-05-03T04:29:08.974Z,10.50
2018-05-03T04:31:36.450Z,10.40
2018-05-03T04:34:03.936Z,10.40
2018-05-03T04:36:32.161Z,10.40
2018-05-03T04:38:59.639Z,10.40
2018-05-03T04:41:27.118Z,10.50
2018-05-03T04:43:55.350Z,10.50
2018-05-03T04:46:22.830Z,10.40
2018-05-03T04:48:50.295Z,10.50
2018-05-03T04:51:17.770Z,10.50
2018-05-03T04:53:46.010Z,10.40
2018-05-03T04:56:13.511Z,10.60
2018-05-03T04:58:41.769Z,10.50
2018-05-03T05:01:10.023Z,10.70
2018-05-03T05:03:37.498Z,10.60
2018-05-03T05:06:04.985Z,10.80
2018-05-03T05:08:32.472Z,10.90
2018-05-03T05:10:59.950Z,11.00
2018-05-03T05:13:27.425Z,11.10
2018-05-03T05:15:54.913Z,11.10
2018-05-03T05:18:23.162Z,11.50
2018-05-03T05:20:51.102Z,11.50
2018-05-03T05:23:18.567Z,11.70
2018-05-03T05:25:46.051Z,11.80
2018-05-03T05:28:13.534Z,12.00
2018-05-03T05:30:41.818Z,12.30
2018-05-03T05:33:09.252Z,12.30
2018-05-03T05:35:36.722Z,12.50
2018-05-03T05:38:04.954Z,12.60
2018-05-03T05:40:32.419Z,12.60
2018-05-03T05:42:59.901Z,12.70
2018-05-03T05:45:27.369Z,12.80
2018-05-03T05:47:54.853Z,13.00
2018-05-03T05:50:22.348Z,13.10
2018-05-03T05:52:49.821Z,13.00
2018-05-03T05:55:17.290Z,13.10
2018-05-03T05:57:44.772Z,13.10
2018-05-03T06:00:13.006Z,13.30
2018-05-03T06:02:41.258Z,13.40
2018-05-03T06:05:08.729Z,13.30
2018-05-03T06:07:36.227Z,13.40
2018-05-03T06:10:03.694Z,13.40
2018-05-03T06:12:31.174Z,13.50
2018-05-03T06:14:58.642Z,13.60
2018-05-03T06:17:26.142Z,13.70
2018-05-03T06:19:53.605Z,13.80
2018-05-03T06:22:21.083Z,13.60
2018-05-03T06:24:48.551Z,13.70
2018-05-03T06:27:16.794Z,13.60
2018-05-03T06:29:44.262Z,13.50
2018-05-03T06:32:11.725Z,13.50
2018-05-03T06:34:39.193Z,13.50
2018-05-03T06:37:06.669Z,13.50
2018-05-03T06:39:34.901Z,13.70
2018-05-03T06:42:02.377Z,13.60
2018-05-03T06:44:29.852Z,13.80
2018-05-03T06:46:58.102Z,14.10
2018-05-03T06:49:25.625Z,14.00
2018-05-03T06:51:53.866Z,14.20
2018-05-03T06:54:22.132Z,14.30
2018-05-03T06:56:49.593Z,14.30
2018-05-03T06:59:17.076Z,14.30
2018-05-03T07:01:45.306Z,14.40
2018-05-03T07:04:12.914Z,14.40
2018-05-03T07:06:41.034Z,14.40
2018-05-03T07:09:08.516Z,14.40
2018-05-03T07:11:36.006Z,14.50
2018-05-03T07:14:03.587Z,14.40
2018-05-03T07:16:30.966Z,14.10
2018-05-03T07:18:58.451Z,14.10
2018-05-03T07:21:25.918Z,14.10
2018-05-03T07:23:53.484Z,14.00
2018-05-03T07:26:20.881Z,14.10
2018-05-03T07:28:48.362Z,14.30
2018-05-03T07:31:15.829Z,14.30
2018-05-03T07:33:43.309Z,14.40
2018-05-03T07:36:11.561Z,14.70
2018-05-03T07:38:39.050Z,14.70
2018-05-03T07:41:06.517Z,14.70
2018-05-03T07:43:34.762Z,14.80
2018-05-03T07:46:02.241Z,14.80
2018-05-03T07:48:29.744Z,14.90
2018-05-03T07:50:57.219Z,15.00
2018-05-03T07:53:24.699Z,14.90
2018-05-03T07:55:52.175Z,14.90
2018-05-03T07:58:19.660Z,15.00
2018-05-03T08:00:47.127Z,15.00
2018-05-03T08:03:14.615Z,15.00
2018-05-03T08:05:42.090Z,15.00
2018-05-03T08:08:09.561Z,15.20
2018-05-03T08:10:37.042Z,15.20
2018-05-03T08:13:05.358Z,15.40
2018-05-03T08:15:32.763Z,15.40
2018-05-03T08:18:00.237Z,15.40
2018-05-03T08:20:28.987Z,15.60
2018-05-03T08:22:56.457Z,15.60
2018-05-03T08:25:23.941Z,15.60
2018-05-03T08:27:52.190Z,15.90
2018-05-03T08:30:19.667Z,15.90
2018-05-03T08:32:47.914Z,16.00
2018-05-03T08:35:15.402Z,16.00
2018-05-03T08:37:43.638Z,16.00
2018-05-03T08:40:11.121Z,15.90
2018-05-03T08:42:38.596Z,16.10
2018-05-03T08:45:06.131Z,16.10
2018-05-03T08:47:33.606Z,16.20
2018-05-03T08:50:01.087Z,16.30
2018-05-03T08:52:29.315Z,16.20
2018-05-03T08:54:56.793Z,16.20
2018-05-03T08:57:24.263Z,16.00
2018-05-03T08:59:52.510Z,16.10
2018-05-03T09:02:20.745Z,16.20
2018-05-03T09:04:48.227Z,16.20
2018-05-03T09:07:15.709Z,16.30
2018-05-03T09:09:43.730Z,16.30
2018-05-03T09:12:11.217Z,16.60
2018-05-03T09:14:38.702Z,16.90
2018-05-03T09:17:06.187Z,17.10
2018-05-03T09:19:34.432Z,17.10
2018-05-03T09:22:01.905Z,17.10
2018-05-03T09:24:29.381Z,17.10
2018-05-03T09:26:57.617Z,17.50
2018-05-03T09:29:25.098Z,17.50
2018-05-03T09:34:45.426Z,17.70
2018-05-03T09:37:13.670Z,17.70
2018-05-03T09:39:41.150Z,17.70
2018-05-03T09:42:08.621Z,17.90
2018-05-03T09:44:36.862Z,17.80
2018-05-03T09:47:04.328Z,17.80
2018-05-03T09:49:31.793Z,17.70
2018-05-03T09:51:59.282Z,17.70
2018-05-03T09:54:27.522Z,17.90
2018-05-03T09:56:54.989Z,17.90
2018-05-03T09:59:22.560Z,18.10
2018-05-03T10:01:50.739Z,18.20
2018-05-03T10:04:18.229Z,18.20
2018-05-03T10:06:45.694Z,18.30
2018-05-03T10:09:13.175Z,18.10
2018-05-03T10:11:40.639Z,18.20
2018-05-03T10:14:08.110Z,18.00
2018-05-03T10:16:35.576Z,18.30
2018-05-03T10:19:03.054Z,18.50
2018-05-03T10:21:31.294Z,18.60
2018-05-03T10:23:58.776Z,18.60
2018-05-03T10:26:26.241Z,18.40
2018-05-03T10:28:53.711Z,18.30
2018-05-03T10:31:21.950Z,18.00
2018-05-03T10:33:49.413Z,18.00
2018-05-03T10:36:16.967Z,18.10
2018-05-03T10:38:44.361Z,18.10
2018-05-03T10:41:12.610Z,18.50
2018-05-03T10:43:40.078Z,18.50
2018-05-03T10:46:07.565Z,18.70
2018-05-03T10:48:35.797Z,18.90
2018-05-03T10:51:03.275Z,18.90
2018-05-03T10:53:30.746Z,19.00
2018-05-03T10:55:58.990Z,19.10
2018-05-03T10:58:26.457Z,19.10
2018-05-03T11:00:53.933Z,19.20
2018-05-03T11:03:21.404Z,19.10
2018-05-03T11:05:49.648Z,19.50
2018-05-03T11:08:17.115Z,19.40
2018-05-03T11:10:44.581Z,19.50
2018-05-03T11:13:12.052Z,19.50
2018-05-03T11:15:40.289Z,19.40
2018-05-03T11:18:07.769Z,19.40
2018-05-03T11:20:35.250Z,19.60
2018-05-03T11:23:03.478Z,19.70
2018-05-03T11:25:30.958Z,19.70
2018-05-03T11:27:58.432Z,19.70
2018-05-03T11:30:25.924Z,19.50
2018-05-03T11:32:53.387Z,19.30
2018-05-03T11:35:20.861Z,19.20
2018-05-03T11:37:48.330Z,19.50
2018-05-03T11:40:15.802Z,19.30
2018-05-03T11:42:43.356Z,19.50
2018-05-03T11:45:10.772Z,19.50
2018-05-03T11:47:38.247Z,19.70
2018-05-03T11:50:05.728Z,19.90
2018-05-03T11:52:33.189Z,20.10
2018-05-03T11:55:00.675Z,20.00
2018-05-03T11:57:28.145Z,19.90
2018-05-03T11:59:56.389Z,19.80
2018-05-03T12:02:23.889Z,19.70
2018-05-03T12:04:51.346Z,19.90
2018-05-03T12:07:19.583Z,19.70
2018-05-03T12:09:47.065Z,19.60
2018-05-03T12:12:14.527Z,19.80
2018-05-03T12:14:42.768Z,20.00
2018-05-03T12:17:10.245Z,20.00
2018-05-03T12:19:37.717Z,19.80
2018-05-03T12:22:06.005Z,19.90
2018-05-03T12:24:34.241Z,20.10
2018-05-03T12:27:01.710Z,20.00
2018-05-03T12:29:29.210Z,20.20
2018-05-03T12:31:57.439Z,20.30
2018-05-03T12:34:24.902Z,20.30
2018-05-03T12:36:53.166Z,20.10
2018-05-03T12:39:20.625Z,20.10
2018-05-03T12:41:48.099Z,20.20
2018-05-03T12:44:15.583Z,20.10
2018-05-03T12:46:43.826Z,20.10
2018-05-03T12:49:11.298Z,20.10
2018-05-03T12:51:38.781Z,20.20
2018-05-03T12:54:07.013Z,20.20
2018-05-03T12:56:34.491Z,20.10
2018-05-03T12:59:01.952Z,20.10
2018-05-03T13:01:29.426Z,20.10
2018-05-03T13:03:57.674Z,20.00
2018-05-03T13:06:25.171Z,20.00
2018-05-03T13:08:52.646Z,20.10
2018-05-03T13:11:20.131Z,20.20
2018-05-03T13:13:47.614Z,20.40
2018-05-03T13:16:15.093Z,20.40
2018-05-03T13:18:42.552Z,20.40
2018-05-03T13:21:10.797Z,20.40
2018-05-03T13:23:38.265Z,20.30
2018-05-03T13:26:06.539Z,20.40
2018-05-03T13:28:34.006Z,20.30
2018-05-03T13:31:01.486Z,20.20
2018-05-03T13:33:29.718Z,20.20
2018-05-03T13:35:57.200Z,20.10
2018-05-03T13:38:24.669Z,20.20
2018-05-03T13:40:52.142Z,20.30
2018-05-03T13:43:20.379Z,20.30
2018-05-03T13:45:47.851Z,20.30
2018-05-03T13:48:15.332Z,20.30
2018-05-03T13:50:43.574Z,20.50
2018-05-03T13:53:11.046Z,20.40
2018-05-03T13:55:38.621Z,20.50
2018-05-03T13:58:06.765Z,20.50
2018-05-03T14:00:34.247Z,20.50
2018-05-03T14:03:01.713Z,20.50
2018-05-03T14:05:29.961Z,20.80
2018-05-03T14:07:57.426Z,20.80
2018-05-03T14:10:24.909Z,20.90
2018-05-03T14:12:52.388Z,20.70
2018-05-03T14:15:19.857Z,20.70
2018-05-03T14:17:47.953Z,20.80
2018-05-03T14:20:15.481Z,20.90
2018-05-03T14:22:42.913Z,20.90
2018-05-03T14:25:10.407Z,20.70
2018-05-03T14:27:37.881Z,20.70
2018-05-03T14:30:05.343Z,20.90
2018-05-03T14:32:32.821Z,21.00
2018-05-03T14:35:00.287Z,20.90
2018-05-03T14:37:27.770Z,20.90
2018-05-03T14:39:56.010Z,20.70
2018-05-03T14:42:23.488Z,20.70
2018-05-03T14:44:50.954Z,20.80
2018-05-03T14:47:19.228Z,20.80
2018-05-03T14:49:46.682Z,20.80
2018-05-03T14:52:14.162Z,20.90
2018-05-03T14:54:42.393Z,20.90
2018-05-03T14:57:09.871Z,20.80
2018-05-03T14:59:37.334Z,20.90
2018-05-03T15:02:05.373Z,20.80
2018-05-03T15:04:32.833Z,20.80
2018-05-03T15:07:00.313Z,20.90
2018-05-03T15:09:27.778Z,20.90
2018-05-03T15:11:55.262Z,20.90
2018-05-03T15:14:23.500Z,21.00
2018-05-03T15:16:50.967Z,21.00
2018-05-03T15:19:18.440Z,20.90
2018-05-03T15:21:45.917Z,20.60
2018-05-03T15:24:14.188Z,20.60
2018-05-03T15:26:41.649Z,20.60
2018-05-03T15:29:09.883Z,20.90
2018-05-03T15:31:37.358Z,20.80
2018-05-03T15:34:04.826Z,21.00
2018-05-03T15:36:32.298Z,21.00
2018-05-03T15:39:00.533Z,21.00
2018-05-03T15:41:28.019Z,21.00
2018-05-03T15:43:55.485Z,20.80
2018-05-03T15:46:22.960Z,20.40
2018-05-03T15:48:51.186Z,20.40
2018-05-03T15:51:18.659Z,20.40
2018-05-03T15:53:46.121Z,20.40
2018-05-03T15:56:13.614Z,20.40
2018-05-03T16:01:35.033Z,20.40
2018-05-03T16:04:02.467Z,20.10
2018-05-03T16:06:29.949Z,19.90
2018-05-03T16:08:57.435Z,20.00
2018-05-03T16:11:24.925Z,20.00
2018-05-03T16:13:52.390Z,20.00
2018-05-03T16:16:19.877Z,20.00
2018-05-03T16:18:47.345Z,19.90
2018-05-03T16:21:14.846Z,20.00
2018-05-03T16:23:42.319Z,19.90
2018-05-03T16:26:09.787Z,19.90
2018-05-03T16:28:37.259Z,19.70
2018-05-03T16:31:04.738Z,19.70
2018-05-03T16:33:32.210Z,19.60
2018-05-03T16:36:00.449Z,19.40
2018-05-03T16:38:27.946Z,19.40
2018-05-03T16:40:56.190Z,19.20
2018-05-03T16:43:23.661Z,19.20
2018-05-03T16:45:51.135Z,19.10
2018-05-03T16:48:19.421Z,19.00
2018-05-03T16:50:47.685Z,18.90
2018-05-03T16:53:15.152Z,18.90
2018-05-03T16:55:43.419Z,18.50
2018-05-03T16:58:10.950Z,18.40
2018-05-03T17:00:38.409Z,18.20
2018-05-03T17:03:06.650Z,18.20
2018-05-03T17:05:34.118Z,18.20
2018-05-03T17:08:01.607Z,18.00
2018-05-03T17:10:29.093Z,17.90
2018-05-03T17:12:57.936Z,17.80
2018-05-03T17:15:25.430Z,17.80
2018-05-03T17:17:52.907Z,17.80
2018-05-03T17:20:21.141Z,17.60
2018-05-03T17:22:48.614Z,17.60
2018-05-03T17:25:16.088Z,17.60
2018-05-03T17:27:43.604Z,17.60
2018-05-03T17:30:11.797Z,17.50
2018-05-03T17:32:39.295Z,17.50
2018-05-03T17:35:07.531Z,17.30
2018-05-03T17:37:35.030Z,17.30
2018-05-03T17:40:03.260Z,17.30
2018-05-03T17:42:30.735Z,17.20
2018-05-03T17:44:58.204Z,17.30
2018-05-03T17:47:25.695Z,17.30
2018-05-03T17:49:53.182Z,17.30
2018-05-03T17:52:20.646Z,17.20
2018-05-03T17:54:48.126Z,17.20
2018-05-03T17:57:15.594Z,17.10
2018-05-03T17:59:43.081Z,17.20
2018-05-03T18:02:11.314Z,17.20
2018-05-03T18:04:39.737Z,17.20
2018-05-03T18:07:07.195Z,17.10
2018-05-03T18:09:35.443Z,16.80
2018-05-03T18:12:02.921Z,16.80
2018-05-03T18:14:31.181Z,16.60
2018-05-03T18:16:58.648Z,16.50
2018-05-03T18:19:26.154Z,16.50
2018-05-03T18:21:53.617Z,16.40
2018-05-03T18:24:21.097Z,16.20
2018-05-03T18:26:48.562Z,16.20
2018-05-03T18:29:16.802Z,15.80
2018-05-03T18:31:44.275Z,15.80
2018-05-03T18:34:11.786Z,15.80
2018-05-03T18:36:39.225Z,15.70
2018-05-03T18:39:06.697Z,15.60
2018-05-03T18:41:34.213Z,15.60
2018-05-03T18:44:02.499Z,15.40
2018-05-03T18:46:30.710Z,15.30
2018-05-03T18:48:58.158Z,15.30
2018-05-03T18:51:25.634Z,15.20
2018-05-03T18:53:53.865Z,15.00
2018-05-03T18:56:22.107Z,14.90
2018-05-03T18:58:49.575Z,14.80
2018-05-03T19:01:17.099Z,14.80
2018-05-03T19:03:44.555Z,14.70
2018-05-03T19:06:12.026Z,14.70
2018-05-03T19:08:41.042Z,14.60
2018-05-03T19:11:08.525Z,14.60
2018-05-03T19:13:35.995Z,14.50
2018-05-03T19:16:03.480Z,14.50
2018-05-03T19:18:30.956Z,14.50
2018-05-03T19:20:59.195Z,14.40
2018-05-03T19:23:26.665Z,14.40
2018-05-03T19:25:54.141Z,14.30
2018-05-03T19:28:22.378Z,14.20
2018-05-03T19:30:49.856Z,14.20
2018-05-03T19:33:17.321Z,14.20
2018-05-03T19:35:44.801Z,14.00
2018-05-03T19:38:13.030Z,14.00
2018-05-03T19:40:40.515Z,13.90
2018-05-03T19:43:07.983Z,13.90
2018-05-03T19:45:35.462Z,13.90
2018-05-03T19:48:02.955Z,13.90
2018-05-03T19:50:30.433Z,13.80
2018-05-03T19:52:57.898Z,13.80
2018-05-03T19:55:25.480Z,13.80
2018-05-03T19:57:53.630Z,13.70
2018-05-03T20:00:21.102Z,13.70
2018-05-03T20:02:48.587Z,13.70
2018-05-03T20:05:16.817Z,13.60
2018-05-03T20:07:44.290Z,13.60
2018-05-03T20:10:11.765Z,13.60
2018-05-03T20:12:39.238Z,13.50
2018-05-03T20:15:07.865Z,13.40
2018-05-03T20:17:35.339Z,13.40
2018-05-03T20:20:02.832Z,13.10
2018-05-03T20:22:31.841Z,12.40
2018-05-03T20:24:59.315Z,12.40
2018-05-03T20:27:26.797Z,12.10
2018-05-03T20:29:54.262Z,11.90
2018-05-03T20:32:21.742Z,11.80
2018-05-03T20:34:49.202Z,11.80
2018-05-03T20:37:16.679Z,11.60
2018-05-03T20:39:44.963Z,11.40
2018-05-03T20:42:12.420Z,11.40
2018-05-03T20:44:40.656Z,11.30
2018-05-03T20:47:08.154Z,11.30
2018-05-03T20:49:36.391Z,11.10
2018-05-03T20:52:04.082Z,11.10
2018-05-03T20:54:31.545Z,11.10
2018-05-03T20:57:00.471Z,11.00
2018-05-03T20:59:27.945Z,11.00
2018-05-03T21:01:55.422Z,10.90
2018-05-03T21:04:22.898Z,10.90
2018-05-03T21:06:50.378Z,10.90
2018-05-03T21:09:18.606Z,11.10
2018-05-03T21:11:46.088Z,11.10
2018-05-03T21:14:13.558Z,11.00
2018-05-03T21:16:41.035Z,10.90
2018-05-03T21:19:09.280Z,10.90
2018-05-03T21:21:36.771Z,10.90
2018-05-03T21:24:05.001Z,10.90
2018-05-03T21:26:32.478Z,10.80
2018-05-03T21:28:59.951Z,10.80
2018-05-03T21:31:28.193Z,10.80
2018-05-03T21:33:55.669Z,10.80
2018-05-03T21:36:23.150Z,10.80
2018-05-03T21:38:51.388Z,10.70
2018-05-03T21:41:18.886Z,10.70
2018-05-03T21:43:47.120Z,10.80
2018-05-03T21:46:14.588Z,10.70
2018-05-03T21:48:42.065Z,10.70
2018-05-03T21:51:10.333Z,10.70
2018-05-03T21:53:37.814Z,10.70
2018-05-03T21:56:06.049Z,10.60
2018-05-03T21:58:33.533Z,10.60
2018-05-03T22:01:00.997Z,10.40
2018-05-03T22:03:29.246Z,10.30
2018-05-03T22:05:56.720Z,10.20
2018-05-03T22:08:24.212Z,10.20
2018-05-03T22:10:51.682Z,10.10
2018-05-03T22:13:19.153Z,10.10
2018-05-03T22:15:46.634Z,10.10
2018-05-03T22:18:14.177Z,10.10
2018-05-03T22:20:41.649Z,10.00
2018-05-03T22:23:09.118Z,10.00
2018-05-03T22:25:36.586Z,10.10
2018-05-03T22:28:04.081Z,9.90
2018-05-03T22:30:31.546Z,9.80
2018-05-03T22:32:59.022Z,9.80
2018-05-03T22:35:26.486Z,9.70
2018-05-03T22:37:53.974Z,9.70
2018-05-03T22:40:21.432Z,9.60
2018-05-03T22:42:48.905Z,9.60
2018-05-03T22:45:16.367Z,9.60
2018-05-03T22:47:44.625Z,9.50
2018-05-03T22:50:12.083Z,9.50
2018-05-03T22:52:39.557Z,9.40
2018-05-03T22:55:07.784Z,9.20
2018-05-03T22:57:35.255Z,9.20
2018-05-03T23:00:02.714Z,9.00
2018-05-03T23:02:30.180Z,8.80
2018-05-03T23:04:57.706Z,8.80
2018-05-03T23:07:25.120Z,8.80
2018-05-03T23:09:52.577Z,8.70
2018-05-03T23:12:20.052Z,8.50
2018-05-03T23:14:48.281Z,8.70
2018-05-03T23:17:15.739Z,8.70
2018-05-03T23:19:43.201Z,8.70
2018-05-03T23:22:10.675Z,8.60
2018-05-03T23:24:38.140Z,8.50
2018-05-03T23:27:05.617Z,8.50
2018-05-03T23:29:33.848Z,8.50
2018-05-03T23:32:01.304Z,8.50
2018-05-03T23:34:29.540Z,8.60
2018-05-03T23:36:56.996Z,8.80
2018-05-03T23:39:24.464Z,8.40
2018-05-03T23:41:51.928Z,8.20
2018-05-03T23:44:19.401Z,8.20
2018-05-03T23:46:46.863Z,8.00
2018-05-03T23:49:14.332Z,7.90
2018-05-03T23:51:41.789Z,8.00
2018-05-03T23:54:09.251Z,8.10
2018-05-03T23:56:36.709Z,8.10
2018-05-03T23:59:04.178Z,8.20
